Rohnert Park, CA (94927)

7:40 PM PST on December 20, 2014 (GMT -0800)
Crane Canyon | Change Station
CLOSE
Current Station
Personal Weather Station
Location: Santa Rosa, CA
Elevation: 518 ft
Nearby Weather Stations
Active Advisory: Coastal Flood Advisory

Elev 518 ft 38.37 °N, 122.65 °W | Updated 12 seconds ago

Overcast
Overcast
55.4 °F
Feels Like 55.4 °F
N
7.2
Wind Variable Wind from SW
Gusts 9.8 mph

Today
High -- | Low -- °F
--% Chance of Precip.
Yesterday
High -- | Low -- °F
Precip. -- in
7:23 AM 4:53 PM
Waning Crescent, 1% visible
Pressure 30.17 in
Visibility 2.0 miles
Clouds Mostly Cloudy 400 ft
Mostly Cloudy 900 ft
Overcast 1500 ft
Dew Point 54 °F
Humidity 96%
Rainfall 0.09 in
Snow Depth Not available.
UV 0 out of 12
Pollen 4.00 out of 12
Air Quality Not available.
Flu Activity Not available.
METAR KSTS 210253Z COR 11004KT 2SM -RA BR BKN004 BKN009 OVC015 13/12 A3019 RMK AO2 SLP216 P0009 60018 T01280122 53004

More Conditions Fewer Conditions

Pressure 30.17 in
Visibility 2.0 miles
Clouds Mostly Cloudy 400 ft
Mostly Cloudy 900 ft
Overcast 1500 ft
Dew Point 54 °F
Humidity 96%
Rainfall 0.09 in
Snow Depth Not available.
UV 0 out of 12
Pollen 4.00 out of 12
Air Quality Not available.
Flu Activity Not available.
METAR KSTS 210253Z COR 11004KT 2SM -RA BR BKN004 BKN009 OVC015 13/12 A3019 RMK AO2 SLP216 P0009 60018 T01280122 53004

More Conditions Fewer Conditions

10-Day Weather Forecast

Almanac

Astronomy

Dec. 20, 2014 Rise Set
Actual Time
Civil Twilight
Nautical Twilight
Astronomical Twilight
Moon
Length of Visible Light
Length of Day
Tomorrow will be .
, % of the Moon is Illuminated

Today's Extremes

State Highs State Lows

Community

WunderPhotos

Upload Photos

1,779,354 photos uploaded!

WunderBlogs® & News

Nearby

Air Quality

  Air Quality AQ Index Pollutant
Not available.

Snow Depth

Station Depth Elevation

Earthquake Activity

City Distance Mag. Time & Date
Minimum magnitude displayed is 2.5.

Coastal Water Temperatures

Place Temperature

Nearby Weather Stations